createdAt,value
2018-01-10T00:02:15.271Z,4.36
2018-01-10T00:04:44.395Z,4.47
2018-01-10T00:07:12.753Z,4.56
2018-01-10T00:09:41.118Z,4.45
2018-01-10T00:12:09.475Z,4.49
2018-01-10T00:14:37.822Z,4.54
2018-01-10T00:17:06.166Z,4.54
2018-01-10T00:19:34.580Z,4.40
2018-01-10T00:22:02.966Z,4.44
2018-01-10T00:24:31.323Z,3.97
2018-01-10T00:26:59.676Z,4.13
2018-01-10T00:29:28.042Z,4.34
2018-01-10T00:31:57.155Z,4.41
2018-01-10T00:34:25.512Z,4.48
2018-01-10T00:36:53.863Z,4.65
2018-01-10T00:39:22.210Z,4.73
2018-01-10T00:41:50.553Z,4.69
2018-01-10T00:44:19.682Z,4.74
2018-01-10T00:46:48.242Z,4.79
2018-01-10T00:49:16.599Z,4.75
2018-01-10T00:51:45.715Z,4.72
2018-01-10T00:54:14.112Z,4.70
2018-01-10T00:56:43.473Z,4.72
2018-01-10T00:59:12.588Z,4.69
2018-01-10T01:01:40.940Z,4.34
2018-01-10T01:04:09.276Z,4.23
2018-01-10T01:06:37.604Z,4.07
2018-01-10T01:09:07.717Z,3.77
2018-01-10T01:11:36.070Z,4.03
2018-01-10T01:14:04.422Z,4.26
2018-01-10T01:16:32.765Z,4.36
2018-01-10T01:19:01.878Z,3.87
2018-01-10T01:21:30.603Z,4.03
2018-01-10T01:23:58.953Z,4.32
2018-01-10T01:26:27.297Z,4.36
2018-01-10T01:28:56.422Z,4.52
2018-01-10T01:31:24.767Z,4.67
2018-01-10T01:33:53.125Z,4.88
2018-01-10T01:36:21.477Z,4.82
2018-01-10T01:38:49.826Z,4.99
2018-01-10T01:41:18.172Z,4.97
2018-01-10T01:43:47.011Z,5.00
2018-01-10T01:46:16.104Z,4.98
2018-01-10T01:48:44.464Z,4.46
2018-01-10T01:51:12.797Z,4.57
2018-01-10T01:53:41.132Z,4.77
2018-01-10T01:56:09.461Z,4.87
2018-01-10T01:58:37.800Z,4.66
2018-01-10T02:01:06.136Z,4.80
2018-01-10T02:03:34.485Z,4.37
2018-01-10T02:06:02.829Z,4.22
2018-01-10T02:08:31.169Z,4.48
2018-01-10T02:11:00.269Z,4.28
2018-01-10T02:13:29.376Z,4.33
2018-01-10T02:15:57.721Z,4.56
2018-01-10T02:18:26.081Z,4.41
2018-01-10T02:20:54.433Z,4.09
2018-01-10T02:23:22.780Z,4.02
2018-01-10T02:25:51.136Z,4.00
2018-01-10T02:28:19.497Z,4.21
2018-01-10T02:30:47.841Z,4.64
2018-01-10T02:33:16.184Z,4.91
2018-01-10T02:35:45.281Z,5.16
2018-01-10T02:38:13.625Z,5.31
2018-01-10T02:40:41.962Z,5.41
2018-01-10T02:43:10.315Z,5.37
2018-01-10T02:45:39.437Z,5.48
2018-01-10T02:48:07.781Z,5.64
2018-01-10T02:50:36.133Z,5.72
2018-01-10T02:53:04.484Z,5.60
2018-01-10T02:55:33.265Z,5.20
2018-01-10T02:58:01.606Z,5.08
2018-01-10T03:00:29.956Z,5.04
2018-01-10T03:02:58.292Z,5.36
2018-01-10T03:05:26.632Z,5.53
2018-01-10T03:07:55.732Z,5.55
2018-01-10T03:10:24.074Z,5.03
2018-01-10T03:12:52.419Z,5.28
2018-01-10T03:15:20.757Z,5.30
2018-01-10T03:17:49.852Z,5.49
2018-01-10T03:20:18.180Z,5.66
2018-01-10T03:22:46.553Z,5.76
2018-01-10T03:25:14.881Z,5.74
2018-01-10T03:27:43.991Z,5.86
2018-01-10T03:30:12.329Z,5.87
2018-01-10T03:32:40.663Z,5.98
2018-01-10T03:35:08.990Z,6.06
2018-01-10T03:37:37.349Z,6.12
2018-01-10T03:40:05.680Z,6.03
2018-01-10T03:42:34.022Z,6.07
2018-01-10T03:45:02.359Z,6.14
2018-01-10T03:47:30.933Z,6.18
2018-01-10T03:49:59.268Z,6.19
2018-01-10T03:52:27.620Z,6.25
2018-01-10T03:54:56.078Z,6.23
2018-01-10T03:57:24.421Z,6.22
2018-01-10T03:59:53.533Z,6.22
2018-01-10T04:02:21.877Z,6.18
2018-01-10T04:04:50.225Z,6.19
2018-01-10T04:07:20.444Z,6.22
2018-01-10T04:09:48.782Z,6.14
2018-01-10T04:12:17.900Z,6.08
2018-01-10T04:14:47.114Z,6.09
2018-01-10T04:17:15.448Z,6.06
2018-01-10T04:19:44.545Z,6.02
2018-01-10T04:22:13.668Z,5.98
2018-01-10T04:24:42.002Z,5.96
2018-01-10T04:27:10.334Z,5.85
2018-01-10T04:29:38.664Z,5.87
2018-01-10T04:32:07.008Z,5.89
2018-01-10T04:34:35.349Z,5.77
2018-01-10T04:37:03.680Z,5.73
2018-01-10T04:39:32.069Z,5.37
2018-01-10T04:42:00.404Z,5.46
2018-01-10T04:44:28.781Z,5.54
2018-01-10T04:46:57.122Z,5.47
2018-01-10T04:49:26.224Z,5.25
2018-01-10T04:51:55.325Z,5.40
2018-01-10T04:54:23.701Z,5.42
2018-01-10T04:56:52.040Z,5.50
2018-01-10T04:59:20.382Z,5.27
2018-01-10T05:01:48.727Z,5.22
2018-01-10T05:04:17.105Z,4.97
2018-01-10T05:06:46.202Z,5.03
2018-01-10T05:09:14.536Z,5.10
2018-01-10T05:11:42.886Z,5.13
2018-01-10T05:14:11.238Z,5.29
2018-01-10T05:16:41.845Z,5.42
2018-01-10T05:19:10.196Z,5.47
2018-01-10T05:21:38.542Z,5.42
2018-01-10T05:24:07.748Z,5.49
2018-01-10T05:26:36.957Z,5.58
2018-01-10T05:29:05.296Z,5.63
2018-01-10T05:31:33.628Z,5.75
2018-01-10T05:34:01.977Z,5.81
2018-01-10T05:36:30.312Z,5.83
2018-01-10T05:38:58.666Z,5.85
2018-01-10T05:41:27.016Z,5.87
2018-01-10T05:43:55.352Z,5.89
2018-01-10T05:46:23.692Z,5.88
2018-01-10T05:48:52.828Z,5.91
2018-01-10T05:51:21.925Z,5.91
2018-01-10T05:53:50.272Z,6.03
2018-01-10T05:56:18.628Z,6.10
2018-01-10T05:58:46.987Z,6.15
2018-01-10T06:01:16.021Z,6.17
2018-01-10T06:03:44.365Z,6.22
2018-01-10T06:06:13.828Z,6.13
2018-01-10T06:08:42.175Z,5.96
2018-01-10T06:11:10.556Z,5.75
2018-01-10T06:13:38.901Z,5.85
2018-01-10T06:16:07.241Z,5.86
2018-01-10T06:18:35.585Z,5.56
2018-01-10T06:21:03.949Z,5.25
2018-01-10T06:23:32.342Z,5.61
2018-01-10T06:26:00.673Z,5.72
2018-01-10T06:28:29.008Z,5.81
2018-01-10T06:30:57.341Z,5.95
2018-01-10T06:33:25.680Z,6.08
2018-01-10T06:35:54.018Z,6.13
2018-01-10T06:38:22.361Z,6.12
2018-01-10T06:40:50.708Z,6.11
2018-01-10T06:43:19.520Z,6.18
2018-01-10T06:45:47.865Z,6.25
2018-01-10T06:48:16.205Z,6.05
2018-01-10T06:50:44.547Z,6.23
2018-01-10T06:53:12.885Z,6.26
2018-01-10T06:55:41.246Z,6.21
2018-01-10T06:58:09.592Z,6.32
2018-01-10T07:00:37.919Z,6.19
2018-01-10T07:03:06.269Z,6.13
2018-01-10T07:05:34.613Z,6.11
2018-01-10T07:08:03.740Z,6.06
2018-01-10T07:10:32.838Z,5.89
2018-01-10T07:13:01.181Z,6.07
2018-01-10T07:15:30.277Z,6.13
2018-01-10T07:17:59.378Z,6.13
2018-01-10T07:20:27.708Z,6.15
2018-01-10T07:22:56.069Z,6.19
2018-01-10T07:25:24.396Z,6.31
2018-01-10T07:27:53.512Z,6.34
2018-01-10T07:30:21.871Z,6.27
2018-01-10T07:32:50.976Z,6.37
2018-01-10T07:35:19.318Z,6.12
2018-01-10T07:37:47.662Z,6.30
2018-01-10T07:40:16.005Z,6.16
2018-01-10T07:42:45.109Z,6.12
2018-01-10T07:45:13.457Z,5.80
2018-01-10T07:47:41.801Z,5.80
2018-01-10T07:50:10.134Z,5.76
2018-01-10T07:52:39.245Z,5.75
2018-01-10T07:55:07.580Z,5.76
2018-01-10T07:57:35.947Z,5.87
2018-01-10T08:00:04.294Z,5.81
2018-01-10T08:02:32.642Z,5.86
2018-01-10T08:05:01.345Z,5.72
2018-01-10T08:07:29.690Z,5.67
2018-01-10T08:09:58.020Z,5.84
2018-01-10T08:12:26.362Z,5.95
2018-01-10T08:14:55.485Z,6.05
2018-01-10T08:17:23.832Z,5.92
2018-01-10T08:19:52.948Z,6.00
2018-01-10T08:22:21.288Z,5.90
2018-01-10T08:24:49.621Z,5.90
2018-01-10T08:27:17.966Z,6.09
2018-01-10T08:29:47.073Z,6.20
2018-01-10T08:32:16.417Z,6.14
2018-01-10T08:34:44.755Z,6.19
2018-01-10T08:37:13.103Z,6.12
2018-01-10T08:39:41.462Z,6.12
2018-01-10T08:42:09.821Z,6.37
2018-01-10T08:44:38.179Z,6.35
2018-01-10T08:47:06.530Z,6.46
2018-01-10T08:49:35.640Z,6.56
2018-01-10T08:52:04.039Z,6.65
2018-01-10T08:54:32.368Z,6.50
2018-01-10T08:57:00.699Z,6.45
2018-01-10T08:59:29.034Z,6.31
2018-01-10T09:01:58.132Z,6.21
2018-01-10T09:04:26.520Z,6.44
2018-01-10T09:06:54.845Z,6.30
2018-01-10T09:09:23.192Z,6.52
2018-01-10T09:11:51.525Z,6.47
2018-01-10T09:14:19.874Z,6.53
2018-01-10T09:16:49.110Z,6.58
2018-01-10T09:19:17.467Z,6.47
2018-01-10T09:21:45.814Z,6.57
2018-01-10T09:24:14.160Z,6.63
2018-01-10T09:26:42.554Z,6.64
2018-01-10T09:29:10.905Z,6.77
2018-01-10T09:31:39.236Z,6.54
2018-01-10T09:34:07.572Z,6.59
2018-01-10T09:36:35.915Z,6.52
2018-01-10T09:39:04.270Z,6.65
2018-01-10T09:41:32.597Z,6.70
2018-01-10T09:44:01.800Z,6.83
2018-01-10T09:46:30.151Z,6.83
2018-01-10T09:48:58.498Z,6.83
2018-01-10T09:51:26.845Z,6.95
2018-01-10T09:53:55.184Z,7.04
2018-01-10T09:56:23.527Z,7.01
2018-01-10T09:58:51.864Z,7.12
2018-01-10T10:01:20.209Z,7.16
2018-01-10T10:03:48.553Z,7.25
2018-01-10T10:06:16.888Z,7.28
2018-01-10T10:08:45.242Z,7.38
2018-01-10T10:11:13.617Z,7.48
2018-01-10T10:13:42.685Z,7.66
2018-01-10T10:16:12.793Z,7.69
2018-01-10T10:18:41.170Z,7.83
2018-01-10T10:21:09.519Z,7.92
2018-01-10T10:23:38.606Z,7.94
2018-01-10T10:26:06.956Z,8.03
2018-01-10T10:28:35.300Z,8.16
2018-01-10T10:31:03.698Z,8.09
2018-01-10T10:33:33.899Z,8.10
2018-01-10T10:36:03.271Z,8.22
2018-01-10T10:38:31.608Z,8.48
2018-01-10T10:40:59.924Z,8.77
2018-01-10T10:43:29.015Z,8.98
2018-01-10T10:45:57.343Z,9.11
2018-01-10T10:48:25.674Z,9.29
2018-01-10T10:50:54.802Z,8.94
2018-01-10T10:53:23.115Z,9.18
2018-01-10T10:55:51.461Z,9.36
2018-01-10T10:58:19.822Z,9.61
2018-01-10T11:00:48.139Z,9.70
2018-01-10T11:03:16.493Z,9.83
2018-01-10T11:05:44.809Z,9.95
2018-01-10T11:08:13.129Z,10.05
2018-01-10T11:10:41.468Z,10.15
2018-01-10T11:13:09.806Z,10.13
2018-01-10T11:15:38.138Z,10.29
2018-01-10T11:18:06.474Z,10.18
2018-01-10T11:20:34.813Z,10.25
2018-01-10T11:23:03.143Z,10.25
2018-01-10T11:25:31.492Z,10.14
2018-01-10T11:27:59.837Z,10.13
2018-01-10T11:30:28.187Z,10.19
2018-01-10T11:32:56.540Z,10.20
2018-01-10T11:35:24.928Z,9.93
2018-01-10T11:37:53.282Z,9.92
2018-01-10T11:40:21.596Z,9.65
2018-01-10T11:42:49.939Z,9.68
2018-01-10T11:45:18.263Z,9.48
2018-01-10T11:47:46.627Z,9.49
2018-01-10T11:50:14.945Z,9.38
2018-01-10T11:52:43.259Z,9.46
2018-01-10T11:55:11.565Z,9.41
2018-01-10T11:57:39.899Z,9.33
2018-01-10T12:00:08.210Z,9.12
2018-01-10T12:02:36.569Z,9.15
2018-01-10T12:05:04.901Z,9.15
2018-01-10T12:07:33.244Z,9.37
2018-01-10T12:10:01.564Z,9.84
2018-01-10T12:12:29.905Z,10.48
2018-01-10T12:14:58.232Z,11.02
2018-01-10T12:17:28.162Z,11.03
2018-01-10T12:19:56.500Z,11.13
2018-01-10T12:22:29.722Z,11.18
2018-01-10T12:24:58.762Z,10.97
2018-01-10T12:27:27.096Z,10.82
2018-01-10T12:29:55.441Z,10.70
2018-01-10T12:32:23.782Z,10.59
2018-01-10T12:34:52.123Z,10.30
2018-01-10T12:37:21.123Z,10.09
2018-01-10T12:39:49.446Z,10.06
2018-01-10T12:42:18.496Z,10.02
2018-01-10T12:44:46.802Z,9.85
2018-01-10T12:47:15.150Z,9.88
2018-01-10T12:49:43.487Z,9.90
2018-01-10T12:52:11.832Z,9.80
2018-01-10T12:54:40.185Z,9.96
2018-01-10T12:57:08.511Z,10.25
2018-01-10T12:59:36.865Z,10.53
2018-01-10T13:02:05.203Z,10.60
2018-01-10T13:04:33.547Z,10.53
2018-01-10T13:07:02.646Z,10.54
2018-01-10T13:09:30.984Z,10.47
2018-01-10T13:11:59.333Z,10.30
2018-01-10T13:14:27.666Z,10.33
2018-01-10T13:16:56.026Z,10.51
2018-01-10T13:19:24.359Z,10.65
2018-01-10T13:21:52.700Z,10.65
2018-01-10T13:24:21.053Z,10.79
2018-01-10T13:26:49.390Z,10.78
2018-01-10T13:29:17.720Z,10.83
2018-01-10T13:31:46.053Z,10.90
2018-01-10T13:34:14.404Z,10.85
2018-01-10T13:36:43.526Z,10.76
2018-01-10T13:39:11.880Z,10.32
2018-01-10T13:41:40.214Z,10.41
2018-01-10T13:44:08.579Z,10.46
2018-01-10T13:46:36.926Z,10.53
2018-01-10T13:49:05.738Z,10.57
2018-01-10T13:51:34.108Z,10.59
2018-01-10T13:54:02.435Z,10.58
2018-01-10T13:56:30.764Z,10.61
2018-01-10T13:58:59.125Z,10.55
2018-01-10T14:01:27.444Z,10.53
2018-01-10T14:03:55.811Z,10.51
2018-01-10T14:06:24.161Z,10.45
2018-01-10T14:08:52.496Z,10.45
2018-01-10T14:11:20.849Z,10.55
2018-01-10T14:13:49.184Z,9.73
2018-01-10T14:16:17.498Z,9.56
2018-01-10T14:18:46.590Z,9.86
2018-01-10T14:21:14.922Z,10.01
2018-01-10T14:23:44.039Z,10.06
2018-01-10T14:26:12.366Z,9.97
2018-01-10T14:28:40.707Z,9.96
2018-01-10T14:31:09.041Z,9.96
2018-01-10T14:33:37.762Z,9.92
2018-01-10T14:36:06.097Z,9.83
2018-01-10T14:38:36.492Z,9.93
2018-01-10T14:41:04.830Z,10.03
2018-01-10T14:43:33.162Z,10.00
2018-01-10T14:46:01.487Z,10.06
2018-01-10T14:48:30.620Z,10.05
2018-01-10T14:50:58.977Z,10.03
2018-01-10T14:53:27.315Z,10.10
2018-01-10T14:55:55.660Z,10.08
2018-01-10T14:58:23.990Z,10.02
2018-01-10T15:00:52.315Z,9.91
2018-01-10T15:03:20.677Z,9.57
2018-01-10T15:05:49.004Z,9.28
2018-01-10T15:08:18.098Z,9.07
2018-01-10T15:10:46.411Z,8.96
2018-01-10T15:13:14.744Z,8.99
2018-01-10T15:15:43.092Z,9.12
2018-01-10T15:18:12.219Z,9.13
2018-01-10T15:20:40.558Z,9.17
2018-01-10T15:23:08.915Z,9.02
2018-01-10T15:25:37.229Z,8.53
2018-01-10T15:28:05.851Z,8.71
2018-01-10T15:30:34.161Z,8.70
2018-01-10T15:33:02.497Z,8.92
2018-01-10T15:35:31.179Z,9.01
2018-01-10T15:37:59.501Z,9.05
2018-01-10T15:40:27.837Z,9.07
2018-01-10T15:42:56.141Z,9.09
2018-01-10T15:45:25.747Z,8.93
2018-01-10T15:47:54.083Z,8.62
2018-01-10T15:50:23.364Z,8.65
2018-01-10T15:52:51.698Z,8.72
2018-01-10T15:55:20.072Z,8.34
2018-01-10T15:57:48.412Z,8.45
2018-01-10T16:00:16.752Z,8.51
2018-01-10T16:02:45.066Z,8.37
2018-01-10T16:05:13.783Z,8.25
2018-01-10T16:07:42.119Z,8.24
2018-01-10T16:10:10.448Z,8.14
2018-01-10T16:12:38.766Z,8.06
2018-01-10T16:15:07.083Z,7.95
2018-01-10T16:17:36.424Z,7.82
2018-01-10T16:20:04.755Z,7.72
2018-01-10T16:22:33.106Z,7.56
2018-01-10T16:25:01.453Z,7.47
2018-01-10T16:27:29.842Z,7.35
2018-01-10T16:29:58.159Z,7.26
2018-01-10T16:32:26.963Z,7.18
2018-01-10T16:34:55.288Z,7.07
2018-01-10T16:37:23.612Z,6.94
2018-01-10T16:39:51.953Z,6.88
2018-01-10T16:42:20.262Z,6.88
2018-01-10T16:44:49.410Z,6.84
2018-01-10T16:47:17.770Z,6.74
2018-01-10T16:49:46.086Z,6.68
2018-01-10T16:52:14.855Z,6.65
2018-01-10T16:54:43.236Z,6.47
2018-01-10T16:57:11.570Z,6.47
2018-01-10T16:59:40.667Z,6.61
2018-01-10T17:02:09.155Z,6.69
2018-01-10T17:04:37.482Z,6.72
2018-01-10T17:07:05.835Z,6.80
2018-01-10T17:09:34.155Z,6.89
2018-01-10T17:12:02.467Z,6.91
2018-01-10T17:14:31.556Z,6.87
2018-01-10T17:16:59.933Z,6.95
2018-01-10T17:19:29.058Z,6.97
2018-01-10T17:21:57.397Z,6.96
2018-01-10T17:24:26.617Z,7.05
2018-01-10T17:26:54.949Z,7.09
2018-01-10T17:29:23.275Z,7.03
2018-01-10T17:31:52.216Z,7.02
2018-01-10T17:34:20.542Z,7.03
2018-01-10T17:36:48.887Z,7.00
2018-01-10T17:39:17.373Z,7.05
2018-01-10T17:41:45.717Z,7.13
2018-01-10T17:44:14.040Z,7.24
2018-01-10T17:46:42.637Z,7.20
2018-01-10T17:49:10.983Z,7.23
2018-01-10T17:51:39.293Z,7.13
2018-01-10T17:54:08.393Z,7.04
2018-01-10T17:56:36.745Z,7.13
2018-01-10T17:59:05.919Z,7.10
2018-01-10T18:01:34.258Z,7.08
2018-01-10T18:04:02.603Z,7.07
2018-01-10T18:06:30.942Z,7.02
2018-01-10T18:08:59.329Z,7.00
2018-01-10T18:11:28.408Z,6.98
2018-01-10T18:13:57.806Z,6.95
2018-01-10T18:16:26.486Z,6.88
2018-01-10T18:18:55.209Z,6.78
2018-01-10T18:21:23.822Z,6.65
2018-01-10T18:23:52.377Z,6.35
2018-01-10T18:26:21.082Z,6.10
2018-01-10T18:28:49.731Z,6.19
2018-01-10T18:31:18.780Z,6.15
2018-01-10T18:33:47.411Z,6.20
2018-01-10T18:36:17.675Z,6.14
2018-01-10T18:38:47.418Z,6.07
2018-01-10T18:41:17.321Z,5.92
2018-01-10T18:43:46.993Z,5.71
2018-01-10T18:46:16.727Z,5.53
2018-01-10T18:48:47.255Z,5.59
2018-01-10T18:51:17.790Z,5.67
2018-01-10T18:53:48.412Z,5.87
2018-01-10T18:56:18.311Z,6.01
2018-01-10T18:58:49.195Z,6.21
2018-01-10T19:01:24.049Z,6.34
2018-01-10T19:03:53.844Z,6.40
2018-01-10T19:06:24.335Z,6.37
2018-01-10T19:08:54.106Z,6.38
2018-01-10T19:11:23.897Z,6.33
2018-01-10T19:13:53.759Z,6.40
2018-01-10T19:16:23.624Z,6.33
2018-01-10T19:18:53.524Z,6.34
2018-01-10T19:21:23.553Z,6.13
2018-01-10T19:23:53.499Z,6.09
2018-01-10T19:26:23.295Z,5.87
2018-01-10T19:28:53.490Z,6.05
2018-01-10T19:31:24.935Z,6.17
2018-01-10T19:33:54.881Z,6.17
2018-01-10T19:36:24.741Z,6.26
2018-01-10T19:38:54.598Z,6.32
2018-01-10T19:41:24.503Z,6.34
2018-01-10T19:43:55.251Z,6.31
2018-01-10T19:46:25.192Z,6.22
2018-01-10T19:48:55.052Z,6.28
2018-01-10T19:51:25.727Z,6.21
2018-01-10T19:53:55.736Z,6.19
2018-01-10T19:56:25.648Z,6.30
2018-01-10T19:58:55.540Z,6.31
2018-01-10T20:01:26.247Z,6.39
2018-01-10T20:03:56.100Z,6.47
2018-01-10T20:06:25.965Z,6.52
2018-01-10T20:08:55.840Z,6.53
2018-01-10T20:11:26.444Z,6.42
2018-01-10T20:13:57.065Z,6.33
2018-01-10T20:16:26.994Z,5.88
2018-01-10T20:18:57.060Z,5.88
2018-01-10T20:21:27.161Z,5.93
2018-01-10T20:23:57.066Z,6.01
2018-01-10T20:26:27.069Z,6.11
2018-01-10T20:28:56.990Z,6.23
2018-01-10T20:31:26.936Z,6.38
2018-01-10T20:33:57.737Z,6.36
2018-01-10T20:36:28.410Z,6.40
2018-01-10T20:38:58.250Z,6.39
2018-01-10T20:41:29.188Z,6.36
2018-01-10T20:43:59.089Z,6.41
2018-01-10T20:46:29.012Z,6.35
2018-01-10T20:48:59.765Z,6.38
2018-01-10T20:51:31.139Z,6.44
2018-01-10T20:54:01.211Z,6.39
2018-01-10T20:56:36.913Z,6.42
2018-01-10T20:59:06.848Z,6.26
2018-01-10T21:01:36.815Z,6.27
2018-01-10T21:04:06.932Z,6.30
2018-01-10T21:06:36.949Z,6.13
2018-01-10T21:09:07.006Z,6.08
2018-01-10T21:11:36.925Z,6.12
2018-01-10T21:14:06.906Z,5.99
2018-01-10T21:16:36.816Z,5.84
2018-01-10T21:19:06.815Z,5.99
2018-01-10T21:21:36.766Z,6.08
2018-01-10T21:24:06.692Z,6.22
2018-01-10T21:26:36.638Z,6.14
2018-01-10T21:29:06.578Z,6.17
2018-01-10T21:31:36.502Z,6.23
2018-01-10T21:34:06.389Z,6.00
2018-01-10T21:36:36.395Z,5.75
2018-01-10T21:39:06.890Z,5.96
2018-01-10T21:41:36.807Z,6.02
2018-01-10T21:44:06.897Z,5.42
2018-01-10T21:46:38.299Z,5.12
2018-01-10T21:49:08.273Z,5.61
2018-01-10T21:51:38.264Z,5.80
2018-01-10T21:54:08.082Z,5.99
2018-01-10T21:56:37.896Z,6.00
2018-01-10T21:59:07.827Z,5.94
2018-01-10T22:01:37.666Z,5.64
2018-01-10T22:04:07.526Z,5.90
2018-01-10T22:06:37.279Z,6.04
2018-01-10T22:09:07.180Z,6.08
2018-01-10T22:11:37.096Z,6.24
2018-01-10T22:14:07.399Z,6.27
2018-01-10T22:16:38.076Z,6.14
2018-01-10T22:19:07.958Z,6.20
2018-01-10T22:21:37.825Z,6.26
2018-01-10T22:24:07.853Z,6.21
2018-01-10T22:26:37.792Z,6.26
2018-01-10T22:29:08.331Z,6.26
2018-01-10T22:31:38.138Z,6.16
2018-01-10T22:34:07.900Z,6.20
2018-01-10T22:36:37.567Z,6.24
2018-01-10T22:39:07.464Z,6.33
2018-01-10T22:41:37.960Z,6.34
2018-01-10T22:44:07.800Z,6.43
2018-01-10T22:46:37.789Z,6.29
2018-01-10T22:49:07.124Z,6.03
2018-01-10T22:51:35.790Z,5.97
2018-01-10T22:54:04.280Z,6.05
2018-01-10T22:56:32.755Z,6.04
2018-01-10T22:59:01.966Z,6.12
2018-01-10T23:01:30.305Z,6.32
2018-01-10T23:03:58.664Z,6.39
2018-01-10T23:06:27.033Z,6.42
2018-01-10T23:08:55.354Z,6.45
2018-01-10T23:11:24.476Z,6.57
2018-01-10T23:13:52.802Z,6.62
2018-01-10T23:16:21.136Z,6.66
2018-01-10T23:18:49.464Z,6.53
2018-01-10T23:21:17.784Z,5.72
2018-01-10T23:23:46.114Z,5.71
2018-01-10T23:26:14.806Z,6.01
2018-01-10T23:28:43.124Z,5.97
2018-01-10T23:31:11.426Z,6.03
2018-01-10T23:33:39.751Z,6.14
2018-01-10T23:36:08.852Z,6.42
2018-01-10T23:38:37.229Z,6.64
2018-01-10T23:41:05.567Z,6.74
2018-01-10T23:43:33.886Z,6.84
2018-01-10T23:46:02.947Z,6.87
2018-01-10T23:48:31.261Z,6.71
2018-01-10T23:51:00.347Z,6.93
2018-01-10T23:53:28.683Z,7.02
2018-01-10T23:55:56.999Z,6.95
2018-01-10T23:58:26.101Z,7.02
